Metar Aviation Weather Data ENHD

19°C Temp
14°C Dewpoint
% Humidity
Temperature
8 KM/H
5 MPH
4 KTS
190°
Due South

Wind Speed
Partly Cloudy
Conditions
Pressure 1012.92 (hPa) - 29.91 (in)
Visibility 6.2 (mi) - 10 (km)

Current Conditions
ENHD
Metar :ENHD 252150Z AUTO 19004KT 060V230 9999 FEW098/// 19/14 Q1013
Sun 25th July 23:50 pm

  Metar Aviation API Data Provided by https://www.checkwx.com/ PHP scripts by weather34.com ©2021